createdAt,value
2017-03-13T00:00:02.578Z,91.59
2017-03-13T00:15:02.697Z,93
2017-03-13T00:30:02.630Z,93.41
2017-03-13T00:45:02.297Z,93.45
2017-03-13T01:00:02.997Z,93.93
2017-03-13T01:15:03.464Z,95.01
2017-03-13T01:30:02.321Z,94.16
2017-03-13T01:45:02.789Z,93.31
2017-03-13T02:00:02.740Z,94.77
2017-03-13T02:15:02.604Z,95.73
2017-03-13T02:30:02.514Z,95.74
2017-03-13T02:45:03.372Z,95.38
2017-03-13T03:00:02.790Z,95.17
2017-03-13T03:15:03.158Z,95.86
2017-03-13T03:30:02.724Z,96.54
2017-03-13T03:45:02.782Z,96.74
2017-03-13T04:00:02.686Z,97.39
2017-03-13T04:15:02.439Z,96.86
2017-03-13T04:30:02.269Z,98.08
2017-03-13T04:45:03.241Z,97.62
2017-03-13T05:00:03.162Z,96.76
2017-03-13T05:15:03.101Z,97.08
2017-03-13T05:30:02.689Z,96.91
2017-03-13T05:45:02.594Z,96.73
2017-03-13T06:00:07.596Z,97.11
2017-03-13T06:15:02.271Z,97.36
2017-03-13T06:30:04.426Z,96.92
2017-03-13T06:45:03.074Z,96.88
2017-03-13T07:00:03.134Z,96.6
2017-03-13T07:15:07.390Z,96.18
2017-03-13T07:30:02.464Z,95.11
2017-03-13T07:45:03.129Z,93.89
2017-03-13T08:00:03.126Z,89.62
2017-03-13T08:15:03.027Z,88.42
2017-03-13T08:30:02.936Z,86.24
2017-03-13T08:45:02.923Z,85.69
2017-03-13T09:00:03.113Z,84.31
2017-03-13T09:15:08.041Z,80.83
2017-03-13T09:30:02.945Z,78.49
2017-03-13T09:45:02.638Z,76.99
2017-03-13T10:00:02.320Z,74.29
2017-03-13T10:15:03.211Z,71.78
2017-03-13T10:30:04.357Z,69.79
2017-03-13T10:45:04.453Z,67.25
2017-03-13T11:00:08.404Z,68
2017-03-13T11:15:02.795Z,69.26
2017-03-13T11:30:02.685Z,69.29
2017-03-13T11:45:02.312Z,67.83
2017-03-13T12:00:02.980Z,64.71
2017-03-13T12:15:02.705Z,59.15
2017-03-13T12:30:04.026Z,58.59
2017-03-13T12:45:04.021Z,55.52
2017-03-13T13:00:02.683Z,55.8
2017-03-13T13:15:02.596Z,56.63
2017-03-13T13:30:02.482Z,59.77
2017-03-13T13:45:02.414Z,61.17
2017-03-13T14:00:03.314Z,55.15
2017-03-13T14:15:02.626Z,59.41
2017-03-13T14:30:02.591Z,56.18
2017-03-13T14:45:02.429Z,56.96
2017-03-13T15:00:08.118Z,53.69
2017-03-13T15:15:02.601Z,50.68
2017-03-13T15:30:02.448Z,55.36
2017-03-13T15:45:03.076Z,55.28
2017-03-13T16:00:02.989Z,55.16
2017-03-13T16:15:02.838Z,57.53
2017-03-13T16:30:02.712Z,58.51
2017-03-13T16:45:02.453Z,60.39
2017-03-13T17:00:02.475Z,60.78
2017-03-13T17:15:03.071Z,62.36
2017-03-13T17:30:03.162Z,63.36
2017-03-13T17:45:02.807Z,64.58
2017-03-13T18:00:02.526Z,63.2
2017-03-13T18:15:02.462Z,64.08
2017-03-13T18:30:07.361Z,65.13
2017-03-13T18:45:04.313Z,66.43
2017-03-13T19:00:03.155Z,67.57
2017-03-13T19:15:02.769Z,68.5
2017-03-13T19:30:02.949Z,70.15
2017-03-13T19:45:02.855Z,70.9
2017-03-13T20:00:02.490Z,72.61
2017-03-13T20:15:02.426Z,74.23
2017-03-13T20:30:02.278Z,75.7
2017-03-13T20:45:03.179Z,77.52
2017-03-13T21:00:02.801Z,78.31
2017-03-13T21:15:02.712Z,79.79
2017-03-13T21:30:02.570Z,82.56
2017-03-13T21:45:02.423Z,85.47
2017-03-13T22:00:03.072Z,88.27
2017-03-13T22:15:02.970Z,87.72
2017-03-13T22:30:02.815Z,90.35
2017-03-13T22:45:02.488Z,93.28
2017-03-13T23:00:02.224Z,94.13
2017-03-13T23:15:03.221Z,96.14
2017-03-13T23:30:02.941Z,98.52
2017-03-13T23:45:02.592Z,99.54
